D. Carlos I — CTHJ — position and weather

sailwx.info

Track history (hours):
 
Tides and Currents Weather Stations Pressure Air Temp Water Temp Dewpoint Dewpoint Depression Visibility Wind Speed Wind Dir Waves Ship Positions

Oceanographic research ship D. Carlos I (Portugal)

Detailed information on ship capabilities available from University of Delaware's Ocean Information Center.

Last reported at 2019-May-30 23:03 UTC. Time now 2019-Jun-16 00:45 UTC.
Position N 38°40' W 009°09'.
Warning: this ship's position is 16 days out of date.

Length 69 m; draft 5.6 m.

MMSI: 263144000.

Date/timePositionNaut miles runAvg speedWind from/ knotsBaromVisibWave heightAir tempDewpointWater temp
2019-May-30 23:03N 38°40' W 009°09'0 0.0
2019-May-30 23:00N 38°40' W 009°09'0 0.4
2019-May-30 22:31N 38°40' W 009°09'2 4.0
2019-May-30 22:00N 38°41' W 009°11'510.9
2019-May-30 21:31N 38°41' W 009°18'5 9.5
2019-May-30 21:01N 38°37' W 009°22'4 7.9
2019-May-30 20:31N 38°34' W 009°21'5 9.4
2019-May-30 20:00N 38°30' W 009°18'5 9.7
2019-May-30 19:30N 38°25' W 009°15'5 9.2
2019-May-30 19:00N 38°24' W 009°09'510.1
2019-May-30 18:30N 38°25' W 009°03'4 7.2
2019-May-30 18:01N 38°26' W 008°58'3 5.6
2019-May-30 17:31N 38°23' W 008°57'4 8.4
2019-May-30 17:01N 38°19' W 008°58'0 0.3
2019-May-30 16:30N 38°19' W 008°58'1 1.4
2019-May-30 16:00N 38°20' W 008°58'1 1.7
2019-May-30 15:31N 38°20' W 008°57'1 1.3
2019-May-30 15:00N 38°20' W 008°56'0 0.5
2019-May-30 14:30N 38°19' W 008°56'1 1.0
2019-May-30 14:00N 38°19' W 008°55'0 0.7
2019-May-30 13:31N 38°19' W 008°55'0 0.7
2019-May-30 13:00N 38°19' W 008°56'1 1.1
2019-May-30 12:31N 38°19' W 008°56'0 0.7
2019-May-30 12:01N 38°20' W 008°55'0 0.9
2019-May-30 11:30N 38°19' W 008°55'0 0.7
2019-May-30 11:00N 38°19' W 008°55'0 0.8
2019-May-30 10:31N 38°19' W 008°55'1 2.3
2019-May-30 10:00N 38°20' W 008°55'1 3.0
2019-May-30 09:31N 38°22' W 008°55'1 2.8
2019-May-30 09:00N 38°23' W 008°56'3 5.7
2019-May-30 08:31N 38°23' W 008°60'2 4.0
2019-May-30 08:01N 38°24' W 009°02'1 2.4
2019-May-30 07:31N 38°25' W 009°01'1 2.7
2019-May-30 07:01N 38°23' W 009°00'2 3.4
2019-May-30 06:31N 38°25' W 008°59'1 2.3
2019-May-30 06:01N 38°26' W 008°58'2 4.3
2019-May-30 05:30N 38°25' W 009°01'17 1.5
2019-May-29 17:57N 38°31' W 009°22'4 9.7
2019-May-29 17:31N 38°35' W 009°23'5 9.3
2019-May-29 17:00N 38°39' W 009°20'2 4.7
2019-May-29 16:31N 38°41' W 009°18'0 0.9
2019-May-29 16:01N 38°41' W 009°17'1 1.5
2019-May-29 15:30N 38°41' W 009°16'611.3
2019-May-29 15:00N 38°42' W 009°09'2 3.1
2019-May-29 14:30N 38°40' W 009°09'0 0.0
2019-May-28 23:43N 38°40' W 009°09'0 0.0
2019-May-28 23:30N 38°40' W 009°09'0 0.9
2019-May-28 23:00N 38°40' W 009°08'2 3.7
2019-May-28 22:31N 38°41' W 009°10'5 9.9
2019-May-28 22:01N 38°41' W 009°17'5 9.4
2019-May-28 21:31N 38°38' W 009°21'4 8.4
2019-May-28 21:00N 38°35' W 009°26'2 5.0
2019-May-28 20:31N 38°33' W 009°24'  
Track history (hours):
 
Tides and Currents Weather Stations Pressure Air Temp Water Temp Dewpoint Dewpoint Depression Visibility Wind Speed Wind Dir Waves Ship Positions

Oceanographic research ship D. Carlos I (Portugal)

Detailed information on ship capabilities available from University of Delaware's Ocean Information Center.

Last reported at 2019-May-30 23:03 UTC. Time now 2019-Jun-16 00:45 UTC.
Position N 38°40' W 009°09'.
Warning: this ship's position is 16 days out of date.

Length 69 m; draft 5.6 m.

MMSI: 263144000.

Date/timePositionNaut miles runAvg speedWind from/ knotsBaromVisibWave heightAir tempDewpointWater temp
2019-May-30 23:03N 38°40' W 009°09'0 0.0
2019-May-30 23:00N 38°40' W 009°09'0 0.4
2019-May-30 22:31N 38°40' W 009°09'2 4.0
2019-May-30 22:00N 38°41' W 009°11'510.9
2019-May-30 21:31N 38°41' W 009°18'5 9.5
2019-May-30 21:01N 38°37' W 009°22'4 7.9
2019-May-30 20:31N 38°34' W 009°21'5 9.4
2019-May-30 20:00N 38°30' W 009°18'5 9.7
2019-May-30 19:30N 38°25' W 009°15'5 9.2
2019-May-30 19:00N 38°24' W 009°09'510.1
2019-May-30 18:30N 38°25' W 009°03'4 7.2
2019-May-30 18:01N 38°26' W 008°58'3 5.6
2019-May-30 17:31N 38°23' W 008°57'4 8.4
2019-May-30 17:01N 38°19' W 008°58'0 0.3
2019-May-30 16:30N 38°19' W 008°58'1 1.4
2019-May-30 16:00N 38°20' W 008°58'1 1.7
2019-May-30 15:31N 38°20' W 008°57'1 1.3
2019-May-30 15:00N 38°20' W 008°56'0 0.5
2019-May-30 14:30N 38°19' W 008°56'1 1.0
2019-May-30 14:00N 38°19' W 008°55'0 0.7
2019-May-30 13:31N 38°19' W 008°55'0 0.7
2019-May-30 13:00N 38°19' W 008°56'1 1.1
2019-May-30 12:31N 38°19' W 008°56'0 0.7
2019-May-30 12:01N 38°20' W 008°55'0 0.9
2019-May-30 11:30N 38°19' W 008°55'0 0.7
2019-May-30 11:00N 38°19' W 008°55'0 0.8
2019-May-30 10:31N 38°19' W 008°55'1 2.3
2019-May-30 10:00N 38°20' W 008°55'1 3.0
2019-May-30 09:31N 38°22' W 008°55'1 2.8
2019-May-30 09:00N 38°23' W 008°56'3 5.7
2019-May-30 08:31N 38°23' W 008°60'2 4.0
2019-May-30 08:01N 38°24' W 009°02'1 2.4
2019-May-30 07:31N 38°25' W 009°01'1 2.7
2019-May-30 07:01N 38°23' W 009°00'2 3.4
2019-May-30 06:31N 38°25' W 008°59'1 2.3
2019-May-30 06:01N 38°26' W 008°58'2 4.3
2019-May-30 05:30N 38°25' W 009°01'17 1.5
2019-May-29 17:57N 38°31' W 009°22'4 9.7
2019-May-29 17:31N 38°35' W 009°23'5 9.3
2019-May-29 17:00N 38°39' W 009°20'2 4.7
2019-May-29 16:31N 38°41' W 009°18'0 0.9
2019-May-29 16:01N 38°41' W 009°17'1 1.5
2019-May-29 15:30N 38°41' W 009°16'611.3
2019-May-29 15:00N 38°42' W 009°09'2 3.1
2019-May-29 14:30N 38°40' W 009°09'0 0.0
2019-May-28 23:43N 38°40' W 009°09'0 0.0
2019-May-28 23:30N 38°40' W 009°09'0 0.9
2019-May-28 23:00N 38°40' W 009°08'2 3.7
2019-May-28 22:31N 38°41' W 009°10'5 9.9
2019-May-28 22:01N 38°41' W 009°17'5 9.4
2019-May-28 21:31N 38°38' W 009°21'4 8.4
2019-May-28 21:00N 38°35' W 009°26'2 5.0
2019-May-28 20:31N 38°33' W 009°24'  

Dump ship's entire track history